Time;durP1;ratioP1;P1;durP2;ratioP2;P2;SDS_P1;SDS_P2;PMS_P1;PMS_P2;Temp;Humidity;BMP_temperature;BMP_pressure;BME280_temperature;BME280_humidity;BME280_pressure;Samples;Min_cycle;Max_cycle;Signal;HPM_P1;HPM_P2
2023/09/06 00:02:22;;;;;;;11.70;4.82;;;;;;;;;;7722987;23;20216;-80
2023/09/06 00:05:25;;;;;;;8.13;4.80;;;;;;;;;;7722024;23;20031;-81
2023/09/06 00:08:27;;;;;;;7.40;5.15;;;;;;;;;;7723294;23;20035;-80
2023/09/06 00:11:32;;;;;;;10.50;4.95;;;;;;;;;;7721988;23;20072;-79
2023/09/06 00:14:36;;;;;;;12.25;5.30;;;;;;;;;;7722619;23;20208;-79
2023/09/06 00:17:40;;;;;;;7.38;5.13;;;;;;;;;;7692970;23;20028;-80
2023/09/06 00:20:45;;;;;;;8.13;5.20;;;;;;;;;;7722117;23;20067;-79
2023/09/06 00:23:47;;;;;;;8.65;5.35;;;;;;;;;;7722094;23;20032;-80
2023/09/06 00:26:50;;;;;;;8.00;5.13;;;;;;;;;;7722767;23;20370;-78
2023/09/06 00:29:56;;;;;;;11.23;5.05;;;;;;;;;;7721392;23;20028;-78
2023/09/06 00:32:59;;;;;;;11.40;5.80;;;;;;;;;;7722231;23;20024;-79
2023/09/06 00:36:03;;;;;;;11.75;6.07;;;;;;;;;;7720719;23;20035;-80
2023/09/06 00:39:06;;;;;;;9.15;5.95;;;;;;;;;;7721358;23;20035;-79
2023/09/06 00:42:09;;;;;;;8.10;6.00;;;;;;;;;;7723562;23;20036;-79
2023/09/06 00:45:12;;;;;;;;;;;;;;;;;;7723130;23;20024;-79
2023/09/06 00:48:16;;;;;;;9.52;5.93;;;;;;;;;;7722267;23;20203;-79
2023/09/06 00:51:19;;;;;;;8.57;6.10;;;;;;;;;;7720954;23;20035;-79
2023/09/06 00:54:21;;;;;;;10.23;6.60;;;;;;;;;;7722510;23;20048;-79
2023/09/06 00:57:22;;;;;;;8.60;5.93;;;;;;;;;;7721587;23;20029;-79
2023/09/06 01:00:26;;;;;;;10.40;6.40;;;;;;;;;;7722000;23;20021;-79
2023/09/06 01:03:28;;;;;;;10.02;6.38;;;;;;;;;;7706423;23;20025;-80
2023/09/06 01:06:31;;;;;;;10.65;6.15;;;;;;;;;;7721501;23;20023;-79
2023/09/06 01:09:33;;;;;;;9.50;6.40;;;;;;;;;;7721209;23;20040;-79
2023/09/06 01:12:35;;;;;;;11.57;6.82;;;;;;;;;;7721825;23;20071;-80
2023/09/06 01:15:41;;;;;;;8.65;6.00;;;;;;;;;;7722517;23;20035;-79
2023/09/06 01:18:43;;;;;;;9.20;5.47;;;;;;;;;;7722596;23;20096;-79
2023/09/06 01:21:50;;;;;;;11.35;6.15;;;;;;;;;;7720557;23;20028;-81
2023/09/06 01:24:54;;;;;;;8.80;6.00;;;;;;;;;;7721587;23;20356;-78
2023/09/06 01:27:56;;;;;;;11.55;6.18;;;;;;;;;;7721557;23;20091;-79
2023/09/06 01:30:59;;;;;;;10.82;5.97;;;;;;;;;;7721865;23;20198;-79
2023/09/06 01:34:01;;;;;;;10.20;6.68;;;;;;;;;;7759391;23;20020;-79
2023/09/06 01:37:03;;;;;;;10.02;6.63;;;;;;;;;;7758734;22;20030;-79
2023/09/06 01:40:17;;;;;;;12.18;6.32;;;;;;;;;;7759539;23;20084;-78
2023/09/06 01:43:19;;;;;;;11.57;6.28;;;;;;;;;;7758684;22;20074;-78
2023/09/06 01:46:24;;;;;;;15.07;7.43;;;;;;;;;;7759734;23;20087;-78
2023/09/06 01:49:28;;;;;;;14.00;6.93;;;;;;;;;;7759590;23;20031;-80
2023/09/06 01:52:30;;;;;;;11.80;6.82;;;;;;;;;;7759878;22;20020;-78
2023/09/06 01:55:36;;;;;;;12.13;7.53;;;;;;;;;;7758538;23;20031;-79
2023/09/06 01:58:38;;;;;;;10.32;7.00;;;;;;;;;;7757889;23;20020;-78
2023/09/06 02:01:40;;;;;;;12.13;7.65;;;;;;;;;;7758878;22;20028;-79
2023/09/06 02:04:42;;;;;;;15.73;8.40;;;;;;;;;;7758581;23;20028;-79
2023/09/06 02:07:44;;;;;;;14.23;7.65;;;;;;;;;;7756105;23;20031;-79
2023/09/06 02:10:49;;;;;;;13.60;7.40;;;;;;;;;;7758516;23;20040;-79
2023/09/06 02:13:56;;;;;;;17.30;7.95;;;;;;;;;;7743174;23;20036;-80
2023/09/06 02:17:00;;;;;;;11.23;7.82;;;;;;;;;;7760243;23;20072;-80
2023/09/06 02:20:13;;;;;;;14.23;7.47;;;;;;;;;;7742798;23;20047;-78
2023/09/06 02:23:15;;;;;;;12.02;6.97;;;;;;;;;;7757996;22;20075;-81
2023/09/06 02:26:33;;;;;;;11.57;7.20;;;;;;;;;;7760449;23;20193;-78
2023/09/06 02:29:35;;;;;;;8.88;6.63;;;;;;;;;;7736242;22;20104;-79
2023/09/06 02:32:37;;;;;;;14.80;7.07;;;;;;;;;;7721243;23;20044;-78
2023/09/06 02:35:41;;;;;;;11.30;7.15;;;;;;;;;;7721403;23;20024;-80
2023/09/06 02:38:43;;;;;;;10.15;7.43;;;;;;;;;;7720223;23;20028;-79
2023/09/06 02:41:49;;;;;;;16.63;6.30;;;;;;;;;;7721985;23;20075;-79
2023/09/06 02:44:53;;;;;;;11.00;6.97;;;;;;;;;;7720970;23;20047;-80
2023/09/06 02:47:55;;;;;;;12.32;7.07;;;;;;;;;;7723541;23;20047;-78
2023/09/06 02:50:59;;;;;;;10.75;7.15;;;;;;;;;;7721278;23;20021;-79
2023/09/06 02:54:02;;;;;;;12.02;7.57;;;;;;;;;;7723731;23;20020;-79
2023/09/06 02:57:05;;;;;;;10.10;7.68;;;;;;;;;;7723327;23;20028;-79
2023/09/06 03:00:18;;;;;;;11.52;7.40;;;;;;;;;;7723995;23;20020;-78
2023/09/06 03:03:33;;;;;;;9.65;7.55;;;;;;;;;;7721499;23;20029;-79
2023/09/06 03:06:38;;;;;;;11.10;7.45;;;;;;;;;;7721192;23;20043;-80
2023/09/06 03:09:39;;;;;;;12.55;7.20;;;;;;;;;;7723136;23;20036;-77
2023/09/06 03:12:43;;;;;;;10.00;6.30;;;;;;;;;;7687599;23;20025;-79
2023/09/06 03:15:45;;;;;;;10.60;7.18;;;;;;;;;;7717926;23;20024;-79
2023/09/06 03:18:49;;;;;;;12.50;7.15;;;;;;;;;;7723401;23;20063;-80
2023/09/06 03:21:55;;;;;;;10.93;7.35;;;;;;;;;;7723367;23;20020;-79
2023/09/06 03:25:02;;;;;;;10.10;6.47;;;;;;;;;;7723375;23;20320;-79
2023/09/06 03:28:08;;;;;;;11.50;6.93;;;;;;;;;;7722907;23;20095;-78
2023/09/06 03:31:12;;;;;;;9.82;6.93;;;;;;;;;;7694480;23;20044;-78
2023/09/06 03:37:51;;;;;;;9.83;6.13;;;;;;;;;;7702371;23;20068;-79
2023/09/06 03:40:52;;;;;;;9.40;6.70;;;;;;;;;;7739162;23;20427;-78
2023/09/06 03:43:59;;;;;;;9.60;7.15;;;;;;;;;;7722492;23;20339;-78
2023/09/06 03:47:04;;;;;;;10.27;6.90;;;;;;;;;;7723104;23;20029;-78
2023/09/06 03:50:08;;;;;;;9.50;6.28;;;;;;;;;;7708103;23;20024;-80
2023/09/06 03:53:19;;;;;;;12.95;6.78;;;;;;;;;;7721151;23;20331;-78
2023/09/06 03:56:24;;;;;;;10.63;6.45;;;;;;;;;;7723044;23;20033;-78
2023/09/06 03:59:27;;;;;;;9.23;6.05;;;;;;;;;;7722281;23;20031;-79
2023/09/06 04:03:09;;;;;;;12.82;6.10;;;;;;;;;;7722727;23;20095;-79
2023/09/06 04:06:12;;;;;;;10.07;6.20;;;;;;;;;;7674996;23;20024;-78
2023/09/06 04:09:14;;;;;;;11.50;6.25;;;;;;;;;;7733654;23;20055;-79
2023/09/06 04:12:16;;;;;;;12.73;6.45;;;;;;;;;;7722900;23;20034;-78
2023/09/06 04:15:21;;;;;;;9.10;6.53;;;;;;;;;;7722304;23;20098;-78
2023/09/06 04:18:23;;;;;;;11.63;6.20;;;;;;;;;;7722410;23;20384;-78
2023/09/06 04:21:37;;;;;;;;;;;;;;;;;;;;;
2023/09/06 04:24:39;;;;;;;10.93;6.70;;;;;;;;;;7722152;23;20033;-78
2023/09/06 04:27:54;;;;;;;10.48;6.57;;;;;;;;;;7722940;22;20119;-79
2023/09/06 04:31:17;;;;;;;11.07;5.78;;;;;;;;;;7721712;23;20067;-79
2023/09/06 04:34:22;;;;;;;11.85;6.45;;;;;;;;;;7745991;23;20021;-78
2023/09/06 04:37:27;;;;;;;12.18;5.93;;;;;;;;;;7721780;22;20028;-78
2023/09/06 04:40:52;;;;;;;12.88;6.63;;;;;;;;;;7721835;23;20236;-78
2023/09/06 04:43:54;;;;;;;12.70;6.88;;;;;;;;;;7743282;23;20024;-78
2023/09/06 04:46:59;;;;;;;12.55;6.47;;;;;;;;;;7760060;23;20035;-78
2023/09/06 04:50:03;;;;;;;9.88;6.45;;;;;;;;;;7759364;22;20023;-78
2023/09/06 04:53:05;;;;;;;12.20;6.72;;;;;;;;;;7759529;23;20020;-79
2023/09/06 04:56:11;;;;;;;11.93;6.28;;;;;;;;;;7758391;22;20034;-79
2023/09/06 04:59:12;;;;;;;7.90;5.97;;;;;;;;;;7759364;23;20249;-79
2023/09/06 05:02:16;;;;;;;8.60;6.53;;;;;;;;;;7758627;23;20051;-79
2023/09/06 05:05:19;;;;;;;13.00;6.18;;;;;;;;;;7758612;23;20059;-79
2023/09/06 05:08:22;;;;;;;10.23;6.43;;;;;;;;;;7758774;23;20028;-81
2023/09/06 05:11:26;;;;;;;8.50;6.97;;;;;;;;;;7757434;23;20327;-78
2023/09/06 05:14:29;;;;;;;9.00;6.10;;;;;;;;;;7759219;23;20023;-80
2023/09/06 05:17:33;;;;;;;12.50;6.90;;;;;;;;;;7758021;22;20086;-81
2023/09/06 05:20:37;;;;;;;8.43;5.63;;;;;;;;;;7761018;23;20083;-79
2023/09/06 05:27:01;;;;;;;8.98;6.35;;;;;;;;;;7752400;23;20028;-78
2023/09/06 05:30:03;;;;;;;11.70;6.07;;;;;;;;;;7757527;22;20024;-79
2023/09/06 05:33:07;;;;;;;11.05;6.80;;;;;;;;;;7759406;23;20088;-78
2023/09/06 05:36:09;;;;;;;13.73;6.32;;;;;;;;;;7759465;22;20024;-80
2023/09/06 05:39:12;;;;;;;9.52;6.57;;;;;;;;;;7759565;23;20020;-79
2023/09/06 05:42:14;;;;;;;8.63;5.93;;;;;;;;;;7759070;23;20032;-79
2023/09/06 05:45:16;;;;;;;11.30;6.38;;;;;;;;;;7758568;23;20052;-80
2023/09/06 05:48:19;;;;;;;8.05;6.07;;;;;;;;;;7759128;22;20087;-79
2023/09/06 05:51:21;;;;;;;10.55;5.35;;;;;;;;;;7758168;23;20047;-82
2023/09/06 05:54:23;;;;;;;10.68;6.38;;;;;;;;;;7758706;23;20079;-79
2023/09/06 05:57:25;;;;;;;9.00;5.75;;;;;;;;;;7758429;23;20043;-77
2023/09/06 06:00:28;;;;;;;7.70;5.25;;;;;;;;;;7758971;23;20024;-77
2023/09/06 06:03:31;;;;;;;8.52;5.32;;;;;;;;;;7757769;23;20020;-77
2023/09/06 06:06:34;;;;;;;11.25;5.50;;;;;;;;;;7757518;23;20039;-80
2023/09/06 06:09:36;;;;;;;9.00;5.73;;;;;;;;;;7757760;23;20024;-79
2023/09/06 06:12:38;;;;;;;10.13;5.80;;;;;;;;;;7758432;22;20419;-80
2023/09/06 06:15:40;;;;;;;12.63;6.40;;;;;;;;;;7758759;23;20074;-80
2023/09/06 06:18:43;;;;;;;60.45;39.85;;;;;;;;;;7758254;22;20025;-80
2023/09/06 06:21:48;;;;;;;65.68;36.70;;;;;;;;;;7760203;23;20332;-81
2023/09/06 06:24:53;;;;;;;10.85;7.97;;;;;;;;;;7760560;23;20070;-80
2023/09/06 06:27:55;;;;;;;8.77;5.78;;;;;;;;;;7760390;22;20106;-81
2023/09/06 06:30:57;;;;;;;13.77;6.00;;;;;;;;;;7760427;23;20020;-81
2023/09/06 06:34:00;;;;;;;11.38;6.68;;;;;;;;;;7758533;22;20315;-81
2023/09/06 06:37:02;;;;;;;12.18;6.28;;;;;;;;;;7760730;23;20012;-81
2023/09/06 06:40:06;;;;;;;14.07;6.53;;;;;;;;;;7760268;23;20304;-80
2023/09/06 06:43:11;;;;;;;8.00;5.80;;;;;;;;;;7760694;23;20426;-82
2023/09/06 06:46:27;;;;;;;11.52;6.13;;;;;;;;;;7760291;23;20031;-81
2023/09/06 06:49:30;;;;;;;14.30;5.93;;;;;;;;;;7729919;22;20028;-82
2023/09/06 06:52:33;;;;;;;7.30;5.72;;;;;;;;;;7759836;23;20378;-79
2023/09/06 06:55:37;;;;;;;10.52;6.47;;;;;;;;;;7758991;23;20059;-81
2023/09/06 06:58:38;;;;;;;;;;;;;;;;;;7761050;23;20024;-81
2023/09/06 07:01:40;;;;;;;9.73;6.53;;;;;;;;;;7761324;23;19923;-81
2023/09/06 07:04:43;;;;;;;10.55;6.80;;;;;;;;;;7761725;22;20028;-81
2023/09/06 07:07:45;;;;;;;;;;;;;;;;;;7759941;23;20035;-81
2023/09/06 07:10:49;;;;;;;12.43;7.65;;;;;;;;;;7760645;23;19963;-82
2023/09/06 07:13:52;;;;;;;10.98;7.35;;;;;;;;;;7760280;22;20027;-81
2023/09/06 07:16:54;;;;;;;11.75;7.35;;;;;;;;;;7761559;23;20213;-81
2023/09/06 07:19:58;;;;;;;10.18;6.60;;;;;;;;;;7760258;22;20082;-81
2023/09/06 07:23:00;;;;;;;9.93;6.57;;;;;;;;;;7760969;23;20058;-82
2023/09/06 07:26:02;;;;;;;11.63;6.70;;;;;;;;;;7759641;23;20012;-82
2023/09/06 07:29:04;;;;;;;9.35;7.80;;;;;;;;;;7760292;23;20028;-81
2023/09/06 07:32:06;;;;;;;11.18;7.13;;;;;;;;;;7759347;22;20185;-80
2023/09/06 07:35:13;;;;;;;12.43;6.80;;;;;;;;;;7760168;23;20146;-80
2023/09/06 07:38:15;;;;;;;13.73;7.40;;;;;;;;;;7759319;23;20075;-79
2023/09/06 07:41:20;;;;;;;11.30;6.90;;;;;;;;;;7760466;23;20048;-79
2023/09/06 07:44:22;;;;;;;12.35;6.70;;;;;;;;;;7758536;23;20028;-80
2023/09/06 07:47:31;;;;;;;8.88;6.38;;;;;;;;;;7745585;22;20028;-80
2023/09/06 07:54:28;;;;;;;8.00;5.47;;;;;;;;;;7753494;23;20028;-80
2023/09/06 07:57:30;;;;;;;7.03;5.85;;;;;;;;;;7746061;22;20042;-80
2023/09/06 08:01:41;;;;;;;8.23;6.07;;;;;;;;;;7759387;23;20036;-80
2023/09/06 08:05:09;;;;;;;8.60;6.45;;;;;;;;;;7641393;23;20427;-79
2023/09/06 08:12:26;;;;;;;10.13;5.32;;;;;;;;;;7715738;23;20032;-80
2023/09/06 08:15:31;;;;;;;11.95;5.03;;;;;;;;;;7701569;23;20048;-79
2023/09/06 08:18:36;;;;;;;6.60;4.95;;;;;;;;;;7718243;23;20028;-79
2023/09/06 08:34:04;;;;;;;6.60;4.00;;;;;;;;;;7335375;24;20025;-80
2023/09/06 10:32:43;;;;;;;5.65;3.83;;;;;;;;;;7371249;24;20041;-80
2023/09/06 10:35:46;;;;;;;5.40;3.10;;;;;;;;;;7393762;23;20033;-81
2023/09/06 10:39:16;;;;;;;5.70;2.88;;;;;;;;;;7418254;23;20024;-81
2023/09/06 10:42:19;;;;;;;8.00;3.67;;;;;;;;;;7445863;23;20019;-81
2023/09/06 10:45:26;;;;;;;6.15;3.90;;;;;;;;;;7463056;23;20031;-81
2023/09/06 10:49:19;;;;;;;5.32;3.45;;;;;;;;;;7463126;23;20043;-80
2023/09/06 10:52:39;;;;;;;6.28;4.20;;;;;;;;;;7413773;23;20366;-80
2023/09/06 11:19:11;;;;;;;5.43;3.30;;;;;;;;;;7426649;23;20420;-81
2023/09/06 11:22:16;;;;;;;4.78;3.17;;;;;;;;;;7465377;23;20079;-81
2023/09/06 11:29:14;;;;;;;7.05;3.08;;;;;;;;;;7464905;23;20019;-81
2023/09/06 11:32:26;;;;;;;4.15;3.05;;;;;;;;;;7444186;23;20075;-81
2023/09/06 11:36:03;;;;;;;9.38;3.35;;;;;;;;;;7451558;23;20099;-80
2023/09/06 11:39:18;;;;;;;4.18;3.45;;;;;;;;;;7465533;23;20390;-83
2023/09/06 11:42:24;;;;;;;5.13;3.97;;;;;;;;;;7516398;23;20019;-81
2023/09/06 11:45:30;;;;;;;4.40;3.60;;;;;;;;;;7534211;23;20030;-82
2023/09/06 11:48:43;;;;;;;5.28;3.85;;;;;;;;;;7535085;23;20023;-79
2023/09/06 11:51:47;;;;;;;22.98;19.52;;;;;;;;;;7535368;23;20038;-80
2023/09/06 11:54:52;;;;;;;12.95;11.52;;;;;;;;;;7534292;23;20086;-80
2023/09/06 11:57:57;;;;;;;5.45;4.90;;;;;;;;;;7521361;23;20243;-80
2023/09/06 12:01:27;;;;;;;4.55;3.58;;;;;;;;;;7536722;23;20295;-81
2023/09/06 12:05:14;;;;;;;4.72;3.58;;;;;;;;;;7523753;23;20101;-80
2023/09/06 12:08:19;;;;;;;5.30;3.50;;;;;;;;;;7549321;23;20029;-81
2023/09/06 12:11:35;;;;;;;;;;;;;;;;;;;;;
2023/09/06 12:15:02;;;;;;;3.58;3.03;;;;;;;;;;7604243;23;20494;-80
2023/09/06 12:18:05;;;;;;;4.45;3.47;;;;;;;;;;7606963;23;20082;-80
2023/09/06 12:21:36;;;;;;;4.43;3.55;;;;;;;;;;7608285;23;20021;-81
2023/09/06 12:24:40;;;;;;;5.30;3.30;;;;;;;;;;7600855;23;20061;-81
2023/09/06 12:27:46;;;;;;;5.32;3.50;;;;;;;;;;7607865;23;20082;-80
2023/09/06 12:30:52;;;;;;;6.07;3.45;;;;;;;;;;7607148;23;20073;-81
2023/09/06 12:33:53;;;;;;;5.75;3.22;;;;;;;;;;7605560;23;20057;-81
2023/09/06 12:36:55;;;;;;;5.03;3.17;;;;;;;;;;7606914;23;20353;-81
2023/09/06 12:44:11;;;;;;;7.80;3.55;;;;;;;;;;7572920;23;20029;-81
2023/09/06 12:47:35;;;;;;;5.40;2.90;;;;;;;;;;7560233;23;20317;-81
2023/09/06 12:50:48;;;;;;;3.92;3.05;;;;;;;;;;7570733;23;20070;-81
2023/09/06 12:53:50;;;;;;;5.22;3.47;;;;;;;;;;7603035;23;20308;-81
2023/09/06 12:56:56;;;;;;;5.57;3.92;;;;;;;;;;7683003;23;20032;-80
2023/09/06 13:01:08;;;;;;;5.30;2.92;;;;;;;;;;7697077;23;20020;-81
2023/09/06 13:16:31;;;;;;;4.50;2.78;;;;;;;;;;7480517;23;20174;-80
2023/09/06 13:55:47;;;;;;;5.95;3.17;;;;;;;;;;7201888;24;20081;-82
2023/09/06 13:59:14;;;;;;;3.50;2.50;;;;;;;;;;7258589;24;20037;-82
2023/09/06 14:02:28;;;;;;;;;;;;;;;;;;;;;
2023/09/06 14:10:00;;;;;;;11.15;8.90;;;;;;;;;;7411835;23;20080;-81
2023/09/06 14:13:08;;;;;;;41.40;28.33;;;;;;;;;;7409272;23;20063;-80
2023/09/06 14:16:15;;;;;;;20.00;15.45;;;;;;;;;;7515182;23;20086;-80
2023/09/06 14:19:48;;;;;;;6.78;5.40;;;;;;;;;;7520427;23;20221;-82
2023/09/06 14:23:33;;;;;;;5.55;2.60;;;;;;;;;;7608383;23;20018;-80
2023/09/06 14:30:42;;;;;;;7.32;2.72;;;;;;;;;;7624690;23;20243;-80
2023/09/06 14:34:44;;;;;;;;;;;;;;;;;;;;;
2023/09/06 14:38:09;;;;;;;4.82;2.60;;;;;;;;;;7462495;23;20098;-80
2023/09/06 14:41:14;;;;;;;2.78;2.40;;;;;;;;;;7605746;23;20314;-80
2023/09/06 14:51:27;;;;;;;3.38;2.95;;;;;;;;;;7600467;23;20153;-80
2023/09/06 15:27:40;;;;;;;4.78;3.15;;;;;;;;;;7420149;23;20256;-80
2023/09/06 15:30:53;;;;;;;7.70;3.58;;;;;;;;;;7461798;23;20035;-79
2023/09/06 15:33:55;;;;;;;4.53;3.15;;;;;;;;;;7466788;23;20039;-80
2023/09/06 15:40:19;;;;;;;5.75;3.42;;;;;;;;;;7514359;23;20331;-79
2023/09/06 15:43:21;;;;;;;3.65;3.20;;;;;;;;;;7535130;23;20041;-80
2023/09/06 15:50:44;;;;;;;11.48;8.80;;;;;;;;;;7489628;23;20060;-79
2023/09/06 15:53:46;;;;;;;18.02;14.43;;;;;;;;;;7671302;23;20177;-80
2023/09/06 15:56:52;;;;;;;7.75;3.67;;;;;;;;;;7718227;23;20134;-80
2023/09/06 16:04:58;;;;;;;3.90;3.28;;;;;;;;;;7600379;23;20085;-79
2023/09/06 16:20:42;;;;;;;18.77;12.05;;;;;;;;;;7543950;23;20259;-79
2023/09/06 16:36:28;;;;;;;4.68;3.67;;;;;;;;;;7229888;24;20034;-80
2023/09/06 16:52:49;;;;;;;;;;;;;;;;;;;;;
2023/09/06 17:18:14;;;;;;;;;;;;;;;;;;7213066;24;20046;-79
2023/09/06 17:21:17;;;;;;;6.85;4.10;;;;;;;;;;7355517;24;19923;-77
2023/09/06 17:24:20;;;;;;;6.22;3.88;;;;;;;;;;7335247;24;20037;-78
2023/09/06 17:27:30;;;;;;;8.00;3.90;;;;;;;;;;7359121;24;20405;-78
2023/09/06 17:34:32;;;;;;;6.47;4.10;;;;;;;;;;7393949;24;20032;-77
2023/09/06 17:37:38;;;;;;;5.75;4.05;;;;;;;;;;7321691;24;20112;-78
2023/09/06 17:48:13;;;;;;;8.85;4.47;;;;;;;;;;7568810;23;20014;-78
2023/09/06 17:54:59;;;;;;;8.75;4.43;;;;;;;;;;7543160;23;20039;-78
2023/09/06 17:58:06;;;;;;;5.03;3.72;;;;;;;;;;7568810;23;20025;-77
2023/09/06 18:01:13;;;;;;;4.85;3.67;;;;;;;;;;7682209;23;20356;-77
2023/09/06 18:04:34;;;;;;;6.30;4.30;;;;;;;;;;7662553;23;20029;-78
2023/09/06 19:24:31;;;;;;;;;;;;;;;;;;;;;
2023/09/06 19:45:47;;;;;;;15.85;6.05;;;;;;;;;;7303025;24;20022;-75
2023/09/06 19:49:17;;;;;;;10.85;6.25;;;;;;;;;;7331416;24;20034;-76
2023/09/06 20:08:44;;;;;;;10.35;5.50;;;;;;;;;;7227555;24;20257;-76
2023/09/06 20:26:37;;;;;;;12.73;6.88;;;;;;;;;;7303454;24;20025;-76
2023/09/06 20:29:41;;;;;;;12.65;6.82;;;;;;;;;;7464774;23;20027;-75
2023/09/06 20:32:43;;;;;;;10.80;6.85;;;;;;;;;;7465531;23;20087;-75
2023/09/06 20:35:45;;;;;;;14.10;6.43;;;;;;;;;;7465174;23;20064;-75
2023/09/06 20:38:47;;;;;;;13.75;6.55;;;;;;;;;;7466266;23;20355;-75
2023/09/06 20:41:50;;;;;;;20.38;12.30;;;;;;;;;;7464984;23;20023;-75
2023/09/06 20:53:21;;;;;;;15.15;6.97;;;;;;;;;;7462012;23;20060;-79
2023/09/06 21:00:46;;;;;;;13.05;6.55;;;;;;;;;;7420666;23;20032;-79
2023/09/06 21:07:42;;;;;;;14.32;8.10;;;;;;;;;;7499629;23;20358;-79
2023/09/06 21:11:10;;;;;;;20.55;9.85;;;;;;;;;;7524895;23;20033;-79
2023/09/06 21:22:15;;;;;;;16.23;8.07;;;;;;;;;;7351109;24;20029;-79
2023/09/06 21:25:24;;;;;;;19.17;8.68;;;;;;;;;;7437872;23;20031;-79
2023/09/06 22:31:17;;;;;;;12.90;6.90;;;;;;;;;;7333335;24;20033;-79
2023/09/06 22:42:17;;;;;;;9.32;6.70;;;;;;;;;;7535871;23;20014;-79
2023/09/06 23:01:09;;;;;;;11.95;6.40;;;;;;;;;;7486073;23;20023;-78
2023/09/06 23:09:10;;;;;;;9.50;6.00;;;;;;;;;;7411293;23;20024;-78
2023/09/06 23:16:35;;;;;;;11.93;6.05;;;;;;;;;;7385694;24;20024;-79
